createdAt,value
2022-08-14T00:00:40.581Z,0
2022-08-14T00:01:50.322Z,0
2022-08-14T00:03:04.714Z,0
2022-08-14T00:04:31.771Z,0
2022-08-14T00:05:47.595Z,0
2022-08-14T00:07:30.686Z,0
2022-08-14T00:08:43.662Z,0
2022-08-14T00:09:56.448Z,0
2022-08-14T00:11:56.929Z,0
2022-08-14T00:12:59.134Z,0
2022-08-14T00:14:17.166Z,0
2022-08-14T00:15:19.978Z,0
2022-08-14T00:16:40.677Z,0
2022-08-14T00:17:53.769Z,0
2022-08-14T00:19:05.926Z,0
2022-08-14T00:20:30.706Z,0
2022-08-14T00:21:47.760Z,0
2022-08-14T00:22:57.255Z,0
2022-08-14T00:24:23.426Z,0
2022-08-14T00:25:41.982Z,0
2022-08-14T00:27:24.016Z,0
2022-08-14T00:28:32.476Z,0
2022-08-14T00:29:40.218Z,0
2022-08-14T00:30:45.276Z,0
2022-08-14T00:31:47.452Z,0
2022-08-14T00:32:59.761Z,0
2022-08-14T00:34:35.602Z,0
2022-08-14T00:36:34.726Z,0
2022-08-14T00:37:51.906Z,0
2022-08-14T00:38:56.905Z,0
2022-08-14T00:39:58.911Z,0
2022-08-14T00:41:36.344Z,0
2022-08-14T00:43:11.933Z,0
2022-08-14T00:44:21.633Z,0
2022-08-14T00:45:37.536Z,0
2022-08-14T00:46:53.899Z,0
2022-08-14T00:48:04.137Z,0
2022-08-14T00:49:06.752Z,0
2022-08-14T00:50:17.976Z,0
2022-08-14T00:51:34.609Z,0
2022-08-14T00:52:44.296Z,0
2022-08-14T00:53:53.004Z,0
2022-08-14T00:54:57.800Z,0
2022-08-14T00:56:07.006Z,0
2022-08-14T00:57:17.311Z,0
2022-08-14T00:58:20.004Z,0
2022-08-14T00:59:35.498Z,0
2022-08-14T01:00:43.255Z,0
2022-08-14T01:02:03.390Z,0
2022-08-14T01:03:12.291Z,0
2022-08-14T01:04:37.423Z,0
2022-08-14T01:05:58.016Z,0
2022-08-14T01:07:09.363Z,0
2022-08-14T01:08:20.506Z,0
2022-08-14T01:10:02.794Z,0
2022-08-14T01:11:06.785Z,0
2022-08-14T01:12:11.403Z,0
2022-08-14T01:13:34.496Z,0
2022-08-14T01:15:05.243Z,0
2022-08-14T01:16:16.657Z,0
2022-08-14T01:17:34.024Z,0
2022-08-14T01:18:35.815Z,0
2022-08-14T01:19:41.371Z,0
2022-08-14T01:20:54.397Z,0
2022-08-14T01:22:02.029Z,0
2022-08-14T01:23:07.029Z,0
2022-08-14T01:24:10.936Z,0
2022-08-14T01:25:36.228Z,0
2022-08-14T01:26:42.706Z,0
2022-08-14T01:27:56.965Z,0
2022-08-14T01:29:01.761Z,0
2022-08-14T01:30:06.673Z,0
2022-08-14T01:31:09.279Z,0
2022-08-14T01:32:12.764Z,0
2022-08-14T01:33:30.707Z,0
2022-08-14T01:37:24.669Z,0
2022-08-14T01:38:28.190Z,0
2022-08-14T01:39:32.217Z,0
2022-08-14T01:40:40.707Z,0
2022-08-14T01:41:44.230Z,0
2022-08-14T01:42:50.282Z,0
2022-08-14T01:43:59.206Z,0
2022-08-14T01:45:01.568Z,0
2022-08-14T01:46:06.699Z,0
2022-08-14T01:47:38.101Z,0
2022-08-14T01:48:40.449Z,0
2022-08-14T01:49:46.377Z,0
2022-08-14T01:51:04.827Z,0
2022-08-14T01:52:34.805Z,0
2022-08-14T01:54:08.078Z,0
2022-08-14T01:55:23.157Z,0
2022-08-14T01:56:30.529Z,0
2022-08-14T01:57:49.847Z,0
2022-08-14T01:59:31.723Z,0
2022-08-14T02:00:47.834Z,0
2022-08-14T02:01:57.891Z,0
2022-08-14T02:03:21.522Z,0
2022-08-14T02:04:41.037Z,0
2022-08-14T02:06:03.735Z,0
2022-08-14T02:07:53.604Z,0
2022-08-14T02:09:35.612Z,0
2022-08-14T02:10:46.144Z,0
2022-08-14T02:11:54.351Z,0
2022-08-14T02:12:59.365Z,0
2022-08-14T02:14:09.052Z,0
2022-08-14T02:15:37.920Z,0
2022-08-14T02:16:47.040Z,0
2022-08-14T02:17:56.299Z,0
2022-08-14T02:19:01.721Z,0
2022-08-14T02:20:04.604Z,0
2022-08-14T02:21:07.578Z,0
2022-08-14T02:22:10.384Z,0
2022-08-14T02:23:49.068Z,0
2022-08-14T02:24:58.486Z,0
2022-08-14T02:26:00.275Z,0
2022-08-14T02:30:03.683Z,0
2022-08-14T02:31:09.309Z,0
2022-08-14T02:32:20.108Z,0
2022-08-14T02:33:50.718Z,0
2022-08-14T02:34:53.260Z,0
2022-08-14T02:36:05.189Z,0
2022-08-14T02:38:29.799Z,0
2022-08-14T02:39:37.496Z,0
2022-08-14T02:40:40.652Z,0
2022-08-14T02:41:52.546Z,0
2022-08-14T02:43:07.575Z,0
2022-08-14T02:44:12.998Z,0
2022-08-14T02:45:44.607Z,0
2022-08-14T02:46:52.780Z,0
2022-08-14T02:48:10.289Z,0
2022-08-14T02:50:11.022Z,0
2022-08-14T02:51:18.412Z,0
2022-08-14T02:52:27.190Z,0
2022-08-14T02:54:09.039Z,0
2022-08-14T02:55:21.284Z,0
2022-08-14T02:56:29.892Z,0
2022-08-14T02:58:44.759Z,0
2022-08-14T03:00:01.578Z,0
2022-08-14T03:01:20.114Z,0
2022-08-14T03:02:59.281Z,0
2022-08-14T03:04:10.026Z,0
2022-08-14T03:05:14.375Z,0
2022-08-14T03:06:20.513Z,0
2022-08-14T03:08:11.203Z,0
2022-08-14T03:09:21.766Z,0
2022-08-14T03:10:32.214Z,0
2022-08-14T03:11:36.666Z,0
2022-08-14T03:12:38.837Z,4
2022-08-14T03:13:41.199Z,4
2022-08-14T03:14:44.646Z,0
2022-08-14T03:15:51.003Z,0
2022-08-14T03:17:09.986Z,4
2022-08-14T03:18:18.615Z,4
2022-08-14T03:19:34.099Z,4
2022-08-14T03:20:39.168Z,4
2022-08-14T03:21:41.279Z,8
2022-08-14T03:22:44.403Z,8
2022-08-14T03:23:53.295Z,8
2022-08-14T03:24:55.676Z,12
2022-08-14T03:25:59.500Z,12
2022-08-14T03:27:04.119Z,12
2022-08-14T03:28:14.494Z,16
2022-08-14T03:29:43.755Z,20
2022-08-14T03:30:49.504Z,24
2022-08-14T03:32:02.105Z,28
2022-08-14T03:33:10.470Z,36
2022-08-14T03:34:24.483Z,40
2022-08-14T03:36:05.780Z,52
2022-08-14T03:40:30.072Z,92
2022-08-14T03:41:34.248Z,104
2022-08-14T03:42:42.828Z,116
2022-08-14T03:43:57.344Z,132
2022-08-14T03:46:54.261Z,176
2022-08-14T03:48:01.746Z,196
2022-08-14T03:49:42.044Z,224
2022-08-14T03:50:53.018Z,248
2022-08-14T03:52:02.387Z,272
2022-08-14T03:53:55.961Z,312
2022-08-14T03:54:59.505Z,336
2022-08-14T03:56:01.925Z,360
2022-08-14T03:57:08.702Z,388
2022-08-14T03:58:11.977Z,420
2022-08-14T03:59:38.866Z,456
2022-08-14T04:00:45.312Z,492
2022-08-14T04:01:53.813Z,524
2022-08-14T04:03:55.212Z,592
2022-08-14T04:05:08.075Z,628
2022-08-14T04:06:20.907Z,676
2022-08-14T04:08:00.528Z,732
2022-08-14T04:09:34.213Z,788
2022-08-14T04:10:38.524Z,832
2022-08-14T04:11:42.122Z,872
2022-08-14T04:12:51.518Z,916
2022-08-14T04:14:03.361Z,972
2022-08-14T04:15:09.997Z,1020
2022-08-14T04:16:13.045Z,1068
2022-08-14T04:17:16.235Z,1116
2022-08-14T04:18:25.244Z,1176
2022-08-14T04:19:28.038Z,1228
2022-08-14T04:20:40.750Z,1288
2022-08-14T04:22:02.583Z,1360
2022-08-14T04:23:06.894Z,1416
2022-08-14T04:24:37.710Z,1500
2022-08-14T04:25:44.091Z,1568
2022-08-14T04:26:49.727Z,1632
2022-08-14T04:28:02.611Z,1692
2022-08-14T04:29:09.316Z,1768
2022-08-14T04:30:24.996Z,1832
2022-08-14T04:32:56.869Z,1904
2022-08-14T04:34:27.398Z,2056
2022-08-14T04:35:55.782Z,2112
2022-08-14T04:36:59.859Z,2172
2022-08-14T04:38:36.361Z,2216
2022-08-14T04:39:46.618Z,2272
2022-08-14T04:41:09.696Z,2316
2022-08-14T04:42:14.101Z,2344
2022-08-14T04:43:19.680Z,2376
2022-08-14T04:44:26.472Z,2416
2022-08-14T04:45:39.720Z,2468
2022-08-14T04:46:55.419Z,2516
2022-08-14T04:47:59.698Z,2560
2022-08-14T04:49:02.392Z,2624
2022-08-14T04:50:16.332Z,2688
2022-08-14T04:51:19.348Z,2752
2022-08-14T04:52:27.348Z,2828
2022-08-14T04:53:35.185Z,2904
2022-08-14T04:54:48.723Z,3012
2022-08-14T04:55:51.819Z,3112
2022-08-14T04:56:56.139Z,3220
2022-08-14T04:57:59.451Z,3344
2022-08-14T04:59:34.507Z,3556
2022-08-14T05:00:37.495Z,3664
2022-08-14T05:01:56.848Z,3792
2022-08-14T05:03:00.528Z,3904
2022-08-14T05:04:08.575Z,4012
2022-08-14T05:05:23.545Z,4108
2022-08-14T05:06:34.712Z,4188
2022-08-14T05:07:46.808Z,4276
2022-08-14T05:10:01.246Z,4356
2022-08-14T05:11:34.668Z,4524
2022-08-14T05:13:21.107Z,4580
2022-08-14T05:15:56.665Z,4776
2022-08-14T05:17:01.489Z,4844
2022-08-14T05:18:17.173Z,4984
2022-08-14T05:22:56.837Z,5580
2022-08-14T05:24:02.877Z,5736
2022-08-14T05:25:19.944Z,5884
2022-08-14T05:26:24.467Z,5896
2022-08-14T05:27:30.885Z,5944
2022-08-14T05:28:34.360Z,6024
2022-08-14T05:29:37.431Z,6120
2022-08-14T05:30:40.632Z,6212
2022-08-14T05:31:48.723Z,6344
2022-08-14T05:32:59.983Z,6576
2022-08-14T05:34:03.184Z,6768
2022-08-14T05:35:05.147Z,6984
2022-08-14T05:36:16.593Z,7216
2022-08-14T05:37:28.312Z,7444
2022-08-14T05:38:35.159Z,7612
2022-08-14T05:39:38.360Z,7968
2022-08-14T05:40:43.711Z,8292
2022-08-14T05:41:53.218Z,8484
2022-08-14T05:42:57.655Z,8672
2022-08-14T05:44:00.522Z,8800
2022-08-14T05:45:03.946Z,8836
2022-08-14T05:46:15.784Z,8836
2022-08-14T05:47:18.847Z,8936
2022-08-14T05:48:23.346Z,9008
2022-08-14T05:49:49.440Z,9024
2022-08-14T05:50:53.628Z,9012
2022-08-14T05:51:56.826Z,8968
2022-08-14T05:53:19.525Z,9092
2022-08-14T05:54:26.836Z,9132
2022-08-14T05:55:42.850Z,9216
2022-08-14T05:56:53.022Z,9284
2022-08-14T05:57:57.942Z,9408
2022-08-14T05:59:02.394Z,9396
2022-08-14T06:00:04.467Z,9464
2022-08-14T06:01:31.869Z,9416
2022-08-14T06:02:36.856Z,9408
2022-08-14T06:03:40.411Z,9280
2022-08-14T06:04:55.372Z,9236
2022-08-14T06:06:02.542Z,9036
2022-08-14T06:07:04.947Z,8760
2022-08-14T06:08:21.889Z,8504
2022-08-14T06:09:51.037Z,8100
2022-08-14T06:10:54.863Z,7876
2022-08-14T06:11:58.046Z,7772
2022-08-14T06:13:02.417Z,7716
2022-08-14T06:14:06.726Z,7900
2022-08-14T06:15:30.150Z,8148
2022-08-14T06:16:33.058Z,8392
2022-08-14T06:17:38.889Z,8680
2022-08-14T06:19:04.571Z,8932
2022-08-14T06:20:22.041Z,9304
2022-08-14T06:21:25.258Z,9628
2022-08-14T06:22:36.495Z,10064
2022-08-14T06:23:41.323Z,10464
2022-08-14T06:24:43.941Z,10568
2022-08-14T06:25:52.584Z,10920
2022-08-14T06:27:04.228Z,11132
2022-08-14T06:28:27.625Z,11712
2022-08-14T06:29:32.294Z,12120
2022-08-14T06:30:42.042Z,12084
2022-08-14T06:31:54.453Z,12508
2022-08-14T06:35:01.847Z,12608
2022-08-14T06:36:18.308Z,13128
2022-08-14T06:37:21.559Z,13188
2022-08-14T06:38:26.495Z,13120
2022-08-14T06:39:36.194Z,13076
2022-08-14T06:40:45.883Z,12948
2022-08-14T06:41:57.389Z,12796
2022-08-14T06:43:03.249Z,12560
2022-08-14T06:44:09.626Z,12080
2022-08-14T06:45:13.650Z,11696
2022-08-14T06:46:22.357Z,11536
2022-08-14T06:47:40.057Z,11364
2022-08-14T06:48:49.038Z,11188
2022-08-14T06:49:56.075Z,10944
2022-08-14T06:51:01.290Z,10588
2022-08-14T06:52:05.498Z,10676
2022-08-14T06:53:10.051Z,10916
2022-08-14T06:54:12.713Z,10988
2022-08-14T06:55:17.623Z,11220
2022-08-14T06:56:31.921Z,11480
2022-08-14T06:57:36.499Z,11676
2022-08-14T06:58:41.036Z,12048
2022-08-14T06:59:44.642Z,12668
2022-08-14T07:00:47.010Z,13176
2022-08-14T07:01:56.460Z,13544
2022-08-14T07:02:59.566Z,13916
2022-08-14T07:04:03.131Z,13932
2022-08-14T07:05:25.065Z,13856
2022-08-14T07:06:45.788Z,13844
2022-08-14T07:08:00.398Z,14168
2022-08-14T07:09:03.022Z,14688
2022-08-14T07:10:06.730Z,15176
2022-08-14T07:11:18.651Z,15436
2022-08-14T07:12:34.705Z,15552
2022-08-14T07:14:10.199Z,15696
2022-08-14T07:15:18.021Z,15900
2022-08-14T07:16:20.870Z,16108
2022-08-14T07:17:32.081Z,16376
2022-08-14T07:18:44.573Z,16688
2022-08-14T07:19:52.986Z,16984
2022-08-14T07:20:58.279Z,17200
2022-08-14T07:22:00.689Z,17540
2022-08-14T07:23:23.620Z,17920
2022-08-14T07:24:31.220Z,18092
2022-08-14T07:25:37.579Z,18132
2022-08-14T07:26:43.014Z,18020
2022-08-14T07:27:47.748Z,17816
2022-08-14T07:28:51.335Z,17500
2022-08-14T07:29:56.055Z,17092
2022-08-14T07:31:04.490Z,16660
2022-08-14T07:32:07.548Z,16252
2022-08-14T07:33:37.091Z,15580
2022-08-14T07:34:53.464Z,15424
2022-08-14T07:36:01.037Z,15476
2022-08-14T07:37:32.157Z,16568
2022-08-14T07:38:37.724Z,17324
2022-08-14T07:39:43.535Z,18292
2022-08-14T07:40:46.407Z,18608
2022-08-14T07:41:56.631Z,19520
2022-08-14T07:43:14.543Z,20288
2022-08-14T07:44:28.548Z,20736
2022-08-14T07:45:56.430Z,19904
2022-08-14T07:46:59.232Z,19296
2022-08-14T07:48:02.041Z,18956
2022-08-14T07:49:26.789Z,19744
2022-08-14T07:50:34.562Z,19068
2022-08-14T07:51:39.768Z,19004
2022-08-14T07:52:42.162Z,19520
2022-08-14T07:53:49.007Z,19808
2022-08-14T07:55:00.069Z,20128
2022-08-14T07:56:09.313Z,20736
2022-08-14T07:58:30.612Z,22560
2022-08-14T07:59:59.544Z,23296
2022-08-14T08:01:04.755Z,23712
2022-08-14T08:02:17.178Z,24288
2022-08-14T08:03:24.709Z,24896
2022-08-14T08:04:35.685Z,25152
2022-08-14T08:05:44.128Z,25536
2022-08-14T08:06:46.955Z,25408
2022-08-14T08:07:54.966Z,24704
2022-08-14T08:08:58.900Z,23456
2022-08-14T08:10:06.542Z,22400
2022-08-14T08:12:16.126Z,21632
2022-08-14T08:13:22.375Z,21664
2022-08-14T08:14:31.421Z,22048
2022-08-14T08:16:09.491Z,22464
2022-08-14T08:17:17.826Z,23264
2022-08-14T08:18:27.900Z,29280
2022-08-14T08:19:40.995Z,56576
2022-08-14T08:20:52.093Z,79104
2022-08-14T08:22:01.813Z,83040
2022-08-14T08:23:07.333Z,86400
2022-08-14T08:24:52.214Z,91296
2022-08-14T08:26:01.742Z,92736
2022-08-14T08:27:03.803Z,94848
2022-08-14T08:28:19.963Z,87264
2022-08-14T08:29:30.536Z,79648
2022-08-14T08:30:33.688Z,64320
2022-08-14T08:31:37.021Z,30816
2022-08-14T08:32:40.265Z,24256
2022-08-14T08:33:44.986Z,25984
2022-08-14T08:34:52.310Z,26336
2022-08-14T08:35:55.976Z,26336
2022-08-14T08:37:05.260Z,28864
2022-08-14T08:38:14.226Z,32576
2022-08-14T08:41:11.269Z,47040
2022-08-14T08:42:14.531Z,70784
2022-08-14T08:43:17.481Z,112512
2022-08-14T08:44:32.367Z,114656
2022-08-14T08:45:36.720Z,115872
2022-08-14T08:46:39.194Z,114976
2022-08-14T08:47:49.939Z,115296
2022-08-14T08:49:59.846Z,115072
2022-08-14T08:51:33.614Z,112672
2022-08-14T08:52:44.235Z,111680
2022-08-14T08:53:55.692Z,110112
2022-08-14T08:55:00.702Z,109728
2022-08-14T08:56:13.889Z,101728
2022-08-14T08:57:47.151Z,113536
2022-08-14T08:58:50.266Z,114624
2022-08-14T08:59:58.502Z,116192
2022-08-14T09:01:27.671Z,116128
2022-08-14T09:02:33.573Z,115136
2022-08-14T09:03:40.463Z,115104
2022-08-14T09:04:53.106Z,112576
2022-08-14T09:05:56.464Z,110976
2022-08-14T09:07:01.567Z,113984
2022-08-14T09:08:19.429Z,119232
2022-08-14T09:09:53.809Z,120480
2022-08-14T09:11:18.570Z,120928
2022-08-14T09:12:29.814Z,116640
2022-08-14T09:13:35.264Z,121920
2022-08-14T09:14:39.893Z,123488
2022-08-14T09:15:43.306Z,123232
2022-08-14T09:16:48.443Z,121152
2022-08-14T09:17:52.637Z,114432
2022-08-14T09:18:58.362Z,116544
2022-08-14T09:20:04.227Z,110432
2022-08-14T09:21:31.888Z,109344
2022-08-14T09:22:36.805Z,116640
2022-08-14T09:24:27.568Z,117376
2022-08-14T09:25:58.695Z,118560
2022-08-14T09:27:33.792Z,84448
2022-08-14T09:28:37.206Z,109792
2022-08-14T09:29:42.222Z,124448
2022-08-14T09:30:59.741Z,120672
2022-08-14T09:32:58.567Z,124800
2022-08-14T09:34:27.607Z,125408
2022-08-14T09:35:30.514Z,119424
2022-08-14T09:36:36.791Z,100768
2022-08-14T09:37:46.239Z,121184
2022-08-14T09:38:57.559Z,123712
2022-08-14T09:40:02.813Z,122368
2022-08-14T09:41:11.781Z,120512
2022-08-14T09:42:17.954Z,116928
2022-08-14T09:43:51.853Z,117248
2022-08-14T09:44:54.944Z,117088
2022-08-14T09:46:10.725Z,116640
2022-08-14T09:47:28.212Z,114848
2022-08-14T09:48:31.453Z,116960
2022-08-14T09:49:39.785Z,117600
2022-08-14T09:50:43.031Z,88352
2022-08-14T09:51:51.992Z,98816
2022-08-14T09:54:13.331Z,32640
2022-08-14T09:55:32.318Z,113632
2022-08-14T09:56:45.216Z,119424
2022-08-14T09:58:02.621Z,120352
2022-08-14T09:59:06.078Z,120672
2022-08-14T10:00:11.891Z,121280
2022-08-14T10:01:35.158Z,121760
2022-08-14T10:02:53.741Z,117920
2022-08-14T10:03:59.646Z,113088
2022-08-14T10:05:40.421Z,118944
2022-08-14T10:06:44.408Z,117408
2022-08-14T10:07:47.977Z,120416
2022-08-14T10:09:25.581Z,121056
2022-08-14T10:10:42.693Z,120960
2022-08-14T10:12:05.121Z,121152
2022-08-14T10:13:43.026Z,117632
2022-08-14T10:14:59.978Z,120448
2022-08-14T10:16:06.124Z,121408
2022-08-14T10:17:39.779Z,122752
2022-08-14T10:18:49.772Z,120832
2022-08-14T10:19:52.419Z,121280
2022-08-14T10:21:02.221Z,123744
2022-08-14T10:23:13.991Z,120544
2022-08-14T10:24:20.171Z,119648
2022-08-14T10:25:39.492Z,117024
2022-08-14T10:26:46.983Z,114944
2022-08-14T10:27:56.912Z,119040
2022-08-14T10:29:04.182Z,118368
2022-08-14T10:30:33.219Z,116416
2022-08-14T10:31:40.458Z,116832
2022-08-14T10:32:56.038Z,117568
2022-08-14T10:34:03.307Z,118752
2022-08-14T10:35:16.644Z,118016
2022-08-14T10:36:34.636Z,117664
2022-08-14T10:38:03.596Z,116032
2022-08-14T10:39:12.204Z,112480
2022-08-14T10:40:39.078Z,113920
2022-08-14T10:42:10.483Z,120704
2022-08-14T10:43:26.488Z,120832
2022-08-14T10:44:33.180Z,121184
2022-08-14T10:45:35.650Z,103424
2022-08-14T10:49:46.580Z,110848
2022-08-14T10:50:57.949Z,108672
2022-08-14T10:52:01.573Z,111488
2022-08-14T10:53:09.943Z,111936
2022-08-14T10:54:16.600Z,112608
2022-08-14T10:55:59.344Z,108768
2022-08-14T10:57:35.355Z,111456
2022-08-14T10:58:44.185Z,114816
2022-08-14T10:59:46.578Z,117504
2022-08-14T11:00:49.799Z,120800
2022-08-14T11:01:58.629Z,121216
2022-08-14T11:03:02.402Z,120640
2022-08-14T11:04:07.709Z,126016
2022-08-14T11:05:11.222Z,126528
2022-08-14T11:06:17.174Z,124448
2022-08-14T11:07:21.451Z,112256
2022-08-14T11:08:28.155Z,113888
2022-08-14T11:09:33.335Z,121344
2022-08-14T11:10:36.935Z,118624
2022-08-14T11:11:44.620Z,121088
2022-08-14T11:13:41.505Z,123072
2022-08-14T11:14:46.978Z,122144
2022-08-14T11:16:03.908Z,119840
2022-08-14T11:17:10.800Z,115200
2022-08-14T11:18:20.197Z,118624
2022-08-14T11:20:00.059Z,120160
2022-08-14T11:21:02.588Z,119904
2022-08-14T11:22:04.946Z,120512
2022-08-14T11:24:01.123Z,106144
2022-08-14T11:25:58.006Z,96064
2022-08-14T11:27:04.239Z,91072
2022-08-14T11:28:10.809Z,30656
2022-08-14T11:29:52.641Z,29088
2022-08-14T11:31:57.260Z,31648
2022-08-14T11:33:00.465Z,49184
2022-08-14T11:34:06.070Z,54976
2022-08-14T11:35:44.418Z,35456
2022-08-14T11:36:57.364Z,33984
2022-08-14T11:38:51.573Z,69376
2022-08-14T11:39:56.975Z,96096
2022-08-14T11:41:01.455Z,85728
2022-08-14T11:42:55.820Z,92160
2022-08-14T11:44:03.022Z,94432
2022-08-14T11:46:03.839Z,81824
2022-08-14T11:47:44.274Z,101120
2022-08-14T11:50:09.194Z,104320
2022-08-14T11:51:52.838Z,103456
2022-08-14T11:53:04.341Z,62240
2022-08-14T11:54:14.684Z,32416
2022-08-14T11:55:39.648Z,32032
2022-08-14T11:56:42.799Z,37152
2022-08-14T11:57:59.561Z,54880
2022-08-14T11:59:10.026Z,88960
2022-08-14T12:00:19.441Z,82592
2022-08-14T12:01:49.515Z,97024
2022-08-14T12:03:01.954Z,95520
2022-08-14T12:04:08.345Z,89152
2022-08-14T12:05:39.615Z,89920
2022-08-14T12:06:42.021Z,87968
2022-08-14T12:07:54.746Z,95360
2022-08-14T12:09:01.910Z,93824
2022-08-14T12:10:25.780Z,97504
2022-08-14T12:11:52.565Z,77536
2022-08-14T12:12:59.828Z,80256
2022-08-14T12:14:03.347Z,85056
2022-08-14T12:15:49.341Z,69184
2022-08-14T12:16:53.510Z,58240
2022-08-14T12:18:04.586Z,50432
2022-08-14T12:19:22.791Z,40256
2022-08-14T12:20:29.540Z,35872
2022-08-14T12:21:34.540Z,26208
2022-08-14T12:22:42.237Z,47872
2022-08-14T12:23:56.484Z,56384
2022-08-14T12:25:08.570Z,66048
2022-08-14T12:26:31.749Z,68000
2022-08-14T12:27:51.851Z,68160
2022-08-14T12:29:08.553Z,70432
2022-08-14T12:30:11.418Z,69408
2022-08-14T12:31:44.990Z,74784
2022-08-14T12:32:55.142Z,82240
2022-08-14T12:33:58.841Z,81728
2022-08-14T12:35:11.392Z,73600
2022-08-14T12:36:17.986Z,80352
2022-08-14T12:37:23.328Z,83392
2022-08-14T12:38:30.448Z,80448
2022-08-14T12:39:39.992Z,88128
2022-08-14T12:40:48.080Z,97952
2022-08-14T12:41:50.563Z,98944
2022-08-14T12:43:01.278Z,98976
2022-08-14T12:44:05.505Z,96608
2022-08-14T12:45:11.601Z,95840
2022-08-14T12:46:22.553Z,95904
2022-08-14T12:47:31.784Z,93280
2022-08-14T12:48:35.441Z,104384
2022-08-14T12:49:38.004Z,102496
2022-08-14T12:50:44.409Z,98784
2022-08-14T12:51:52.627Z,93792
2022-08-14T12:52:56.160Z,91456
2022-08-14T12:54:26.120Z,83776
2022-08-14T12:56:00.578Z,83808
2022-08-14T12:57:49.331Z,71232
2022-08-14T12:58:56.173Z,85312
2022-08-14T13:00:00.859Z,80704
2022-08-14T13:01:26.399Z,42016
2022-08-14T13:02:31.692Z,31232
2022-08-14T13:03:34.811Z,34048
2022-08-14T13:04:43.188Z,80192
2022-08-14T13:05:48.807Z,76032
2022-08-14T13:06:51.667Z,73312
2022-08-14T13:07:56.350Z,60864
2022-08-14T13:09:01.908Z,59008
2022-08-14T13:10:48.006Z,55584
2022-08-14T13:12:31.709Z,52704
2022-08-14T13:14:21.518Z,49824
2022-08-14T13:15:34.237Z,54880
2022-08-14T13:16:37.852Z,53536
2022-08-14T13:17:41.563Z,57024
2022-08-14T13:18:46.658Z,47520
2022-08-14T13:20:00.918Z,53472
2022-08-14T13:21:59.168Z,52224
2022-08-14T13:23:46.275Z,57952
2022-08-14T13:24:52.343Z,60832
2022-08-14T13:25:56.708Z,52128
2022-08-14T13:26:59.300Z,54080
2022-08-14T13:28:02.105Z,46368
2022-08-14T13:29:40.549Z,42816
2022-08-14T13:30:50.135Z,37600
2022-08-14T13:32:00.566Z,35456
2022-08-14T13:33:03.177Z,82592
2022-08-14T13:34:05.843Z,62336
2022-08-14T13:35:12.288Z,55776
2022-08-14T13:36:52.021Z,41152
2022-08-14T13:38:07.932Z,28480
2022-08-14T13:39:22.239Z,33760
2022-08-14T13:40:26.189Z,35424
2022-08-14T13:41:31.962Z,31936
2022-08-14T13:42:38.904Z,29952
2022-08-14T13:43:49.462Z,27648
2022-08-14T13:45:02.858Z,32320
2022-08-14T13:46:06.054Z,30656
2022-08-14T13:47:13.462Z,25408
2022-08-14T13:48:18.385Z,26176
2022-08-14T13:49:40.224Z,26368
2022-08-14T13:51:01.811Z,34240
2022-08-14T13:52:14.747Z,24352
2022-08-14T13:54:08.663Z,23616
2022-08-14T13:55:13.981Z,35040
2022-08-14T13:56:25.748Z,37696
2022-08-14T13:57:39.782Z,24768
2022-08-14T13:59:39.138Z,36288
2022-08-14T14:00:51.935Z,37280
2022-08-14T14:01:58.653Z,51168
2022-08-14T14:03:01.786Z,55808
2022-08-14T14:04:04.156Z,61024
2022-08-14T14:05:21.765Z,56480
2022-08-14T14:06:25.128Z,58848
2022-08-14T14:07:26.931Z,56256
2022-08-14T14:08:43.808Z,55264
2022-08-14T14:09:51.280Z,53920
2022-08-14T14:10:56.047Z,55008
2022-08-14T14:11:58.670Z,47552
2022-08-14T14:13:05.014Z,50272
2022-08-14T14:14:08.542Z,46400
2022-08-14T14:15:59.148Z,42400
2022-08-14T14:17:01.433Z,43584
2022-08-14T14:18:15.362Z,40384
2022-08-14T14:19:53.224Z,34656
2022-08-14T14:20:55.834Z,39456
2022-08-14T14:21:58.183Z,38944
2022-08-14T14:23:01.975Z,36576
2022-08-14T14:24:18.990Z,29024
2022-08-14T14:25:23.234Z,31200
2022-08-14T14:26:25.624Z,29120
2022-08-14T14:27:40.685Z,26400
2022-08-14T14:28:44.641Z,27392
2022-08-14T14:29:50.580Z,31136
2022-08-14T14:31:01.118Z,41376
2022-08-14T14:32:10.199Z,44864
2022-08-14T14:33:49.290Z,39520
2022-08-14T14:34:59.523Z,40256
2022-08-14T14:36:01.684Z,41376
2022-08-14T14:37:09.768Z,40384
2022-08-14T14:38:14.272Z,40384
2022-08-14T14:39:35.422Z,35456
2022-08-14T14:42:06.642Z,30944
2022-08-14T14:43:35.641Z,32896
2022-08-14T14:44:52.400Z,30048
2022-08-14T14:45:58.811Z,30272
2022-08-14T14:47:07.892Z,29568
2022-08-14T14:48:12.329Z,28768
2022-08-14T14:49:21.599Z,33152
2022-08-14T14:50:56.790Z,33216
2022-08-14T14:52:00.931Z,30144
2022-08-14T14:53:12.572Z,29568
2022-08-14T14:54:17.202Z,33056
2022-08-14T14:55:43.179Z,30336
2022-08-14T14:57:56.128Z,26240
2022-08-14T14:58:58.314Z,22624
2022-08-14T15:00:02.238Z,22496
2022-08-14T15:01:08.615Z,20704
2022-08-14T15:02:15.396Z,17448
2022-08-14T15:03:20.439Z,14784
2022-08-14T15:04:22.555Z,14336
2022-08-14T15:05:29.733Z,14288
2022-08-14T15:06:36.599Z,14052
2022-08-14T15:07:50.799Z,13808
2022-08-14T15:08:59.869Z,14144
2022-08-14T15:10:26.593Z,13592
2022-08-14T15:11:54.380Z,13044
2022-08-14T15:13:00.094Z,12804
2022-08-14T15:14:54.199Z,12296
2022-08-14T15:16:16.464Z,12076
2022-08-14T15:17:19.348Z,12500
2022-08-14T15:18:37.695Z,12604
2022-08-14T15:19:56.603Z,12404
2022-08-14T15:21:00.282Z,13352
2022-08-14T15:22:03.662Z,13440
2022-08-14T15:23:12.875Z,13660
2022-08-14T15:24:20.817Z,13720
2022-08-14T15:25:29.065Z,13820
2022-08-14T15:26:32.558Z,14024
2022-08-14T15:27:36.687Z,13872
2022-08-14T15:29:02.332Z,13736
2022-08-14T15:30:09.543Z,13744
2022-08-14T15:31:34.660Z,13528
2022-08-14T15:32:41.424Z,13472
2022-08-14T15:34:00.719Z,13464
2022-08-14T15:35:55.312Z,13536
2022-08-14T15:37:32.594Z,13536
2022-08-14T15:38:43.687Z,13588
2022-08-14T15:39:52.544Z,13656
2022-08-14T15:40:56.469Z,13804
2022-08-14T15:41:58.333Z,13804
2022-08-14T15:43:01.817Z,13852
2022-08-14T15:44:18.784Z,14000
2022-08-14T15:46:03.815Z,13936
2022-08-14T15:47:46.192Z,14048
2022-08-14T15:48:55.008Z,14036
2022-08-14T15:49:59.019Z,13900
2022-08-14T15:51:03.665Z,13888
2022-08-14T15:52:11.081Z,13860
2022-08-14T15:53:49.562Z,13824
2022-08-14T15:54:54.211Z,13780
2022-08-14T15:55:57.491Z,13772
2022-08-14T15:57:00.420Z,13772
2022-08-14T15:58:08.117Z,13848
2022-08-14T15:59:24.144Z,13676
2022-08-14T16:00:40.209Z,13648
2022-08-14T16:01:55.238Z,13620
2022-08-14T16:02:58.125Z,13556
2022-08-14T16:04:02.742Z,13564
2022-08-14T16:05:18.574Z,13424
2022-08-14T16:06:42.931Z,13240
2022-08-14T16:07:57.647Z,13256
2022-08-14T16:09:07.989Z,12984
2022-08-14T16:10:28.800Z,12856
2022-08-14T16:11:33.436Z,12604
2022-08-14T16:12:56.193Z,12376
2022-08-14T16:13:59.990Z,12172
2022-08-14T16:15:08.444Z,12008
2022-08-14T16:16:34.150Z,11896
2022-08-14T16:18:17.494Z,11460
2022-08-14T16:19:21.060Z,11248
2022-08-14T16:20:42.628Z,11032
2022-08-14T16:21:58.641Z,10788
2022-08-14T16:24:02.542Z,10440
2022-08-14T16:25:05.013Z,10372
2022-08-14T16:26:07.336Z,10124
2022-08-14T16:27:39.746Z,9932
2022-08-14T16:28:46.603Z,9696
2022-08-14T16:29:55.329Z,9632
2022-08-14T16:30:57.985Z,9368
2022-08-14T16:32:01.635Z,9300
2022-08-14T16:34:45.235Z,8904
2022-08-14T16:36:00.714Z,8728
2022-08-14T16:37:34.314Z,8492
2022-08-14T16:38:45.180Z,8476
2022-08-14T16:39:54.012Z,8236
2022-08-14T16:41:00.420Z,8060
2022-08-14T16:42:10.577Z,7928
2022-08-14T16:44:22.198Z,7584
2022-08-14T16:45:39.115Z,7320
2022-08-14T16:46:57.488Z,7072
2022-08-14T16:48:01.503Z,6860
2022-08-14T16:49:03.907Z,6736
2022-08-14T16:50:08.596Z,6464
2022-08-14T16:51:45.981Z,6212